sensor_id;sensor_type;location;lat;lon;timestamp;P1;durP1;ratioP1;P2;durP2;ratioP2
72584;SDS011;60618;40.084;32.908;2023-01-28T00:01:20;11.33;;;4.90;;
72584;SDS011;60618;40.084;32.908;2023-01-28T00:03:50;10.23;;;4.20;;
72584;SDS011;60618;40.084;32.908;2023-01-28T00:06:17;10.60;;;4.70;;
72584;SDS011;60618;40.084;32.908;2023-01-28T00:08:44;9.65;;;4.30;;
72584;SDS011;60618;40.084;32.908;2023-01-28T00:11:11;9.25;;;4.50;;
72584;SDS011;60618;40.084;32.908;2023-01-28T00:13:39;9.27;;;4.13;;
72584;SDS011;60618;40.084;32.908;2023-01-28T00:16:07;10.98;;;5.30;;
72584;SDS011;60618;40.084;32.908;2023-01-28T00:18:34;13.25;;;5.90;;
72584;SDS011;60618;40.084;32.908;2023-01-28T00:21:03;16.35;;;7.03;;
72584;SDS011;60618;40.084;32.908;2023-01-28T00:23:36;18.13;;;8.02;;
72584;SDS011;60618;40.084;32.908;2023-01-28T00:26:05;15.93;;;6.93;;
72584;SDS011;60618;40.084;32.908;2023-01-28T00:28:34;15.27;;;6.28;;
72584;SDS011;60618;40.084;32.908;2023-01-28T00:31:17;10.85;;;4.43;;
72584;SDS011;60618;40.084;32.908;2023-01-28T00:33:49;10.32;;;3.50;;
72584;SDS011;60618;40.084;32.908;2023-01-28T00:36:17;7.30;;;3.20;;
72584;SDS011;60618;40.084;32.908;2023-01-28T00:38:52;6.67;;;2.90;;
72584;SDS011;60618;40.084;32.908;2023-01-28T00:41:22;5.55;;;2.30;;
72584;SDS011;60618;40.084;32.908;2023-01-28T00:43:50;6.72;;;2.10;;
72584;SDS011;60618;40.084;32.908;2023-01-28T00:46:18;9.18;;;2.90;;
72584;SDS011;60618;40.084;32.908;2023-01-28T00:48:47;6.63;;;2.40;;
72584;SDS011;60618;40.084;32.908;2023-01-28T00:51:15;5.47;;;2.13;;
72584;SDS011;60618;40.084;32.908;2023-01-28T00:53:43;7.32;;;2.50;;
72584;SDS011;60618;40.084;32.908;2023-01-28T00:56:12;5.63;;;2.20;;
72584;SDS011;60618;40.084;32.908;2023-01-28T00:58:40;7.00;;;2.10;;
72584;SDS011;60618;40.084;32.908;2023-01-28T01:01:10;6.10;;;1.80;;
72584;SDS011;60618;40.084;32.908;2023-01-28T01:03:43;6.07;;;1.90;;
72584;SDS011;60618;40.084;32.908;2023-01-28T01:06:11;4.70;;;1.60;;
72584;SDS011;60618;40.084;32.908;2023-01-28T01:08:39;3.97;;;1.45;;
72584;SDS011;60618;40.084;32.908;2023-01-28T01:11:08;4.95;;;1.85;;
72584;SDS011;60618;40.084;32.908;2023-01-28T01:13:38;4.60;;;1.60;;
72584;SDS011;60618;40.084;32.908;2023-01-28T01:16:10;5.40;;;1.97;;
72584;SDS011;60618;40.084;32.908;2023-01-28T01:18:39;6.07;;;2.10;;
72584;SDS011;60618;40.084;32.908;2023-01-28T01:21:09;4.57;;;1.90;;
72584;SDS011;60618;40.084;32.908;2023-01-28T01:23:38;5.82;;;1.90;;
72584;SDS011;60618;40.084;32.908;2023-01-28T01:26:06;5.82;;;2.00;;
72584;SDS011;60618;40.084;32.908;2023-01-28T01:28:33;5.07;;;2.03;;
72584;SDS011;60618;40.084;32.908;2023-01-28T01:31:01;5.68;;;2.08;;
72584;SDS011;60618;40.084;32.908;2023-01-28T01:33:29;6.07;;;2.17;;
72584;SDS011;60618;40.084;32.908;2023-01-28T01:35:57;5.60;;;2.40;;
72584;SDS011;60618;40.084;32.908;2023-01-28T01:38:25;6.22;;;2.40;;
72584;SDS011;60618;40.084;32.908;2023-01-28T01:40:56;5.13;;;2.20;;
72584;SDS011;60618;40.084;32.908;2023-01-28T01:43:43;5.45;;;2.35;;
72584;SDS011;60618;40.084;32.908;2023-01-28T01:46:18;6.63;;;2.40;;
72584;SDS011;60618;40.084;32.908;2023-01-28T01:49:01;6.15;;;2.60;;
72584;SDS011;60618;40.084;32.908;2023-01-28T01:51:38;7.85;;;3.33;;
72584;SDS011;60618;40.084;32.908;2023-01-28T01:54:06;6.73;;;2.90;;
72584;SDS011;60618;40.084;32.908;2023-01-28T01:56:34;6.60;;;3.10;;
72584;SDS011;60618;40.084;32.908;2023-01-28T01:59:08;7.00;;;3.00;;
72584;SDS011;60618;40.084;32.908;2023-01-28T02:01:38;5.47;;;2.42;;
72584;SDS011;60618;40.084;32.908;2023-01-28T02:04:14;6.85;;;2.95;;
72584;SDS011;60618;40.084;32.908;2023-01-28T02:06:48;6.43;;;2.60;;
72584;SDS011;60618;40.084;32.908;2023-01-28T02:09:48;7.05;;;2.60;;
72584;SDS011;60618;40.084;32.908;2023-01-28T02:12:12;6.53;;;2.42;;
72584;SDS011;60618;40.084;32.908;2023-01-28T02:14:45;7.47;;;2.70;;
72584;SDS011;60618;40.084;32.908;2023-01-28T02:17:16;6.82;;;2.20;;
72584;SDS011;60618;40.084;32.908;2023-01-28T02:28:11;4.88;;;2.05;;
72584;SDS011;60618;40.084;32.908;2023-01-28T02:31:02;5.35;;;2.50;;
72584;SDS011;60618;40.084;32.908;2023-01-28T02:39:12;10.13;;;3.42;;
72584;SDS011;60618;40.084;32.908;2023-01-28T02:41:46;6.93;;;3.10;;
72584;SDS011;60618;40.084;32.908;2023-01-28T02:44:35;8.98;;;3.58;;
72584;SDS011;60618;40.084;32.908;2023-01-28T02:47:04;8.13;;;3.60;;
72584;SDS011;60618;40.084;32.908;2023-01-28T02:49:38;8.13;;;3.78;;
72584;SDS011;60618;40.084;32.908;2023-01-28T02:52:13;10.70;;;4.63;;
72584;SDS011;60618;40.084;32.908;2023-01-28T02:54:57;9.00;;;4.55;;
72584;SDS011;60618;40.084;32.908;2023-01-28T03:03:22;10.27;;;5.20;;
72584;SDS011;60618;40.084;32.908;2023-01-28T03:06:11;9.75;;;4.43;;
72584;SDS011;60618;40.084;32.908;2023-01-28T03:08:44;9.90;;;4.80;;
72584;SDS011;60618;40.084;32.908;2023-01-28T03:11:15;10.57;;;4.95;;
72584;SDS011;60618;40.084;32.908;2023-01-28T03:13:42;10.40;;;4.70;;
72584;SDS011;60618;40.084;32.908;2023-01-28T03:16:11;10.05;;;5.05;;
72584;SDS011;60618;40.084;32.908;2023-01-28T03:18:46;9.68;;;4.32;;
72584;SDS011;60618;40.084;32.908;2023-01-28T03:21:21;10.80;;;5.18;;
72584;SDS011;60618;40.084;32.908;2023-01-28T03:23:59;8.38;;;4.53;;
72584;SDS011;60618;40.084;32.908;2023-01-28T03:27:05;10.00;;;4.60;;
72584;SDS011;60618;40.084;32.908;2023-01-28T03:29:36;11.18;;;5.05;;
72584;SDS011;60618;40.084;32.908;2023-01-28T03:32:07;11.25;;;5.15;;
72584;SDS011;60618;40.084;32.908;2023-01-28T03:34:35;8.50;;;4.13;;
72584;SDS011;60618;40.084;32.908;2023-01-28T03:37:03;10.00;;;4.40;;
72584;SDS011;60618;40.084;32.908;2023-01-28T03:39:30;8.60;;;4.27;;
72584;SDS011;60618;40.084;32.908;2023-01-28T03:41:58;9.65;;;4.03;;
72584;SDS011;60618;40.084;32.908;2023-01-28T03:44:27;9.88;;;4.28;;
72584;SDS011;60618;40.084;32.908;2023-01-28T03:46:54;8.57;;;4.28;;
72584;SDS011;60618;40.084;32.908;2023-01-28T03:49:21;10.15;;;4.10;;
72584;SDS011;60618;40.084;32.908;2023-01-28T03:51:48;9.20;;;4.27;;
72584;SDS011;60618;40.084;32.908;2023-01-28T03:54:15;9.30;;;3.85;;
72584;SDS011;60618;40.084;32.908;2023-01-28T03:56:42;9.18;;;4.05;;
72584;SDS011;60618;40.084;32.908;2023-01-28T03:59:09;8.40;;;3.67;;
72584;SDS011;60618;40.084;32.908;2023-01-28T04:01:36;7.90;;;3.50;;
72584;SDS011;60618;40.084;32.908;2023-01-28T04:04:03;9.13;;;3.30;;
72584;SDS011;60618;40.084;32.908;2023-01-28T04:06:30;8.07;;;3.30;;
72584;SDS011;60618;40.084;32.908;2023-01-28T04:08:57;8.15;;;3.35;;
72584;SDS011;60618;40.084;32.908;2023-01-28T04:11:24;7.60;;;3.60;;
72584;SDS011;60618;40.084;32.908;2023-01-28T04:13:52;9.55;;;3.95;;
72584;SDS011;60618;40.084;32.908;2023-01-28T04:16:19;9.10;;;4.07;;
72584;SDS011;60618;40.084;32.908;2023-01-28T04:18:46;10.35;;;4.40;;
72584;SDS011;60618;40.084;32.908;2023-01-28T04:21:13;9.23;;;4.07;;
72584;SDS011;60618;40.084;32.908;2023-01-28T04:23:40;10.25;;;4.03;;
72584;SDS011;60618;40.084;32.908;2023-01-28T04:26:07;9.95;;;4.20;;
72584;SDS011;60618;40.084;32.908;2023-01-28T04:28:34;10.67;;;5.20;;
72584;SDS011;60618;40.084;32.908;2023-01-28T04:31:01;10.05;;;4.32;;
72584;SDS011;60618;40.084;32.908;2023-01-28T04:33:28;9.93;;;3.97;;
72584;SDS011;60618;40.084;32.908;2023-01-28T04:35:55;8.40;;;3.75;;
72584;SDS011;60618;40.084;32.908;2023-01-28T04:38:22;9.27;;;3.67;;
72584;SDS011;60618;40.084;32.908;2023-01-28T04:40:50;7.87;;;3.30;;
72584;SDS011;60618;40.084;32.908;2023-01-28T04:43:17;7.72;;;3.50;;
72584;SDS011;60618;40.084;32.908;2023-01-28T04:45:45;8.00;;;3.60;;
72584;SDS011;60618;40.084;32.908;2023-01-28T04:48:13;10.10;;;4.00;;
72584;SDS011;60618;40.084;32.908;2023-01-28T04:50:41;9.50;;;4.40;;
72584;SDS011;60618;40.084;32.908;2023-01-28T04:53:09;10.87;;;4.23;;
72584;SDS011;60618;40.084;32.908;2023-01-28T04:55:36;9.35;;;4.25;;
72584;SDS011;60618;40.084;32.908;2023-01-28T04:58:03;9.80;;;4.15;;
72584;SDS011;60618;40.084;32.908;2023-01-28T05:00:30;9.93;;;4.07;;
72584;SDS011;60618;40.084;32.908;2023-01-28T05:02:56;10.35;;;4.45;;
72584;SDS011;60618;40.084;32.908;2023-01-28T05:05:23;9.13;;;4.13;;
72584;SDS011;60618;40.084;32.908;2023-01-28T05:07:51;9.93;;;4.20;;
72584;SDS011;60618;40.084;32.908;2023-01-28T05:10:19;9.02;;;4.00;;
72584;SDS011;60618;40.084;32.908;2023-01-28T05:12:47;9.20;;;3.15;;
72584;SDS011;60618;40.084;32.908;2023-01-28T05:15:15;7.57;;;3.47;;
72584;SDS011;60618;40.084;32.908;2023-01-28T05:17:43;7.53;;;3.03;;
72584;SDS011;60618;40.084;32.908;2023-01-28T05:20:11;7.68;;;2.90;;
72584;SDS011;60618;40.084;32.908;2023-01-28T05:22:39;7.53;;;3.00;;
72584;SDS011;60618;40.084;32.908;2023-01-28T05:25:06;7.72;;;2.67;;
72584;SDS011;60618;40.084;32.908;2023-01-28T05:27:34;6.43;;;2.60;;
72584;SDS011;60618;40.084;32.908;2023-01-28T05:30:01;6.87;;;2.97;;
72584;SDS011;60618;40.084;32.908;2023-01-28T05:32:28;8.80;;;3.10;;
72584;SDS011;60618;40.084;32.908;2023-01-28T05:34:55;7.40;;;2.90;;
72584;SDS011;60618;40.084;32.908;2023-01-28T05:37:22;9.00;;;3.75;;
72584;SDS011;60618;40.084;32.908;2023-01-28T05:39:49;9.32;;;3.85;;
72584;SDS011;60618;40.084;32.908;2023-01-28T05:42:16;8.23;;;4.20;;
72584;SDS011;60618;40.084;32.908;2023-01-28T05:44:43;8.90;;;4.00;;
72584;SDS011;60618;40.084;32.908;2023-01-28T05:47:10;10.73;;;5.00;;
72584;SDS011;60618;40.084;32.908;2023-01-28T05:49:37;12.23;;;5.22;;
72584;SDS011;60618;40.084;32.908;2023-01-28T05:52:04;10.10;;;4.90;;
72584;SDS011;60618;40.084;32.908;2023-01-28T05:54:31;10.77;;;4.70;;
72584;SDS011;60618;40.084;32.908;2023-01-28T05:56:58;9.45;;;4.05;;
72584;SDS011;60618;40.084;32.908;2023-01-28T05:59:25;9.80;;;4.43;;
72584;SDS011;60618;40.084;32.908;2023-01-28T06:01:52;8.73;;;3.88;;
72584;SDS011;60618;40.084;32.908;2023-01-28T06:04:19;11.95;;;5.75;;
72584;SDS011;60618;40.084;32.908;2023-01-28T06:06:46;16.00;;;8.07;;
72584;SDS011;60618;40.084;32.908;2023-01-28T06:09:12;16.48;;;8.75;;
72584;SDS011;60618;40.084;32.908;2023-01-28T06:11:39;28.08;;;11.13;;
72584;SDS011;60618;40.084;32.908;2023-01-28T06:14:06;95.25;;;27.52;;
72584;SDS011;60618;40.084;32.908;2023-01-28T06:16:33;29.48;;;10.70;;
72584;SDS011;60618;40.084;32.908;2023-01-28T06:19:00;14.67;;;7.37;;
72584;SDS011;60618;40.084;32.908;2023-01-28T06:21:27;18.50;;;6.80;;
72584;SDS011;60618;40.084;32.908;2023-01-28T06:23:55;12.35;;;6.80;;
72584;SDS011;60618;40.084;32.908;2023-01-28T06:26:22;13.02;;;5.88;;
72584;SDS011;60618;40.084;32.908;2023-01-28T06:28:49;20.25;;;11.50;;
72584;SDS011;60618;40.084;32.908;2023-01-28T06:31:16;18.20;;;10.90;;
72584;SDS011;60618;40.084;32.908;2023-01-28T06:33:43;12.25;;;6.30;;
72584;SDS011;60618;40.084;32.908;2023-01-28T06:36:10;14.35;;;8.25;;
72584;SDS011;60618;40.084;32.908;2023-01-28T06:38:37;14.27;;;6.80;;
72584;SDS011;60618;40.084;32.908;2023-01-28T06:41:04;11.07;;;5.20;;
72584;SDS011;60618;40.084;32.908;2023-01-28T06:43:31;13.13;;;6.20;;
72584;SDS011;60618;40.084;32.908;2023-01-28T06:45:58;14.13;;;7.07;;
72584;SDS011;60618;40.084;32.908;2023-01-28T06:48:26;14.15;;;6.47;;
72584;SDS011;60618;40.084;32.908;2023-01-28T06:50:54;16.52;;;7.65;;
72584;SDS011;60618;40.084;32.908;2023-01-28T06:53:20;16.55;;;7.80;;
72584;SDS011;60618;40.084;32.908;2023-01-28T06:55:48;16.43;;;8.20;;
72584;SDS011;60618;40.084;32.908;2023-01-28T06:58:18;17.83;;;9.23;;
72584;SDS011;60618;40.084;32.908;2023-01-28T07:00:46;22.58;;;10.68;;
72584;SDS011;60618;40.084;32.908;2023-01-28T07:03:13;26.40;;;10.80;;
72584;SDS011;60618;40.084;32.908;2023-01-28T07:05:52;22.17;;;10.32;;
72584;SDS011;60618;40.084;32.908;2023-01-28T07:08:21;21.27;;;10.80;;
72584;SDS011;60618;40.084;32.908;2023-01-28T07:10:48;20.67;;;10.30;;
72584;SDS011;60618;40.084;32.908;2023-01-28T07:13:15;21.63;;;9.70;;
72584;SDS011;60618;40.084;32.908;2023-01-28T07:15:42;19.95;;;10.32;;
72584;SDS011;60618;40.084;32.908;2023-01-28T07:18:08;17.80;;;8.73;;
72584;SDS011;60618;40.084;32.908;2023-01-28T07:20:35;16.27;;;8.57;;
72584;SDS011;60618;40.084;32.908;2023-01-28T07:23:03;19.45;;;9.40;;
72584;SDS011;60618;40.084;32.908;2023-01-28T07:25:30;20.08;;;9.80;;
72584;SDS011;60618;40.084;32.908;2023-01-28T07:27:57;20.70;;;8.93;;
72584;SDS011;60618;40.084;32.908;2023-01-28T07:30:24;16.55;;;9.07;;
72584;SDS011;60618;40.084;32.908;2023-01-28T07:32:54;15.80;;;7.97;;
72584;SDS011;60618;40.084;32.908;2023-01-28T07:35:22;13.52;;;7.40;;
72584;SDS011;60618;40.084;32.908;2023-01-28T07:37:54;15.55;;;7.50;;
72584;SDS011;60618;40.084;32.908;2023-01-28T07:40:23;14.77;;;7.93;;
72584;SDS011;60618;40.084;32.908;2023-01-28T07:42:50;15.70;;;8.40;;
72584;SDS011;60618;40.084;32.908;2023-01-28T07:45:18;15.83;;;7.67;;
72584;SDS011;60618;40.084;32.908;2023-01-28T07:47:52;14.93;;;7.75;;
72584;SDS011;60618;40.084;32.908;2023-01-28T07:50:20;18.00;;;8.75;;
72584;SDS011;60618;40.084;32.908;2023-01-28T07:52:47;18.80;;;9.40;;
72584;SDS011;60618;40.084;32.908;2023-01-28T07:55:14;19.52;;;9.98;;
72584;SDS011;60618;40.084;32.908;2023-01-28T07:57:47;19.80;;;10.13;;
72584;SDS011;60618;40.084;32.908;2023-01-28T08:00:21;19.75;;;9.65;;
72584;SDS011;60618;40.084;32.908;2023-01-28T08:02:50;22.83;;;10.63;;
72584;SDS011;60618;40.084;32.908;2023-01-28T08:08:11;21.70;;;10.45;;
72584;SDS011;60618;40.084;32.908;2023-01-28T08:10:38;19.33;;;7.63;;
72584;SDS011;60618;40.084;32.908;2023-01-28T08:13:06;13.27;;;6.03;;
72584;SDS011;60618;40.084;32.908;2023-01-28T08:15:33;15.48;;;7.38;;
72584;SDS011;60618;40.084;32.908;2023-01-28T08:18:01;16.98;;;7.82;;
72584;SDS011;60618;40.084;32.908;2023-01-28T08:20:29;32.53;;;14.20;;
72584;SDS011;60618;40.084;32.908;2023-01-28T08:25:43;25.67;;;11.60;;
72584;SDS011;60618;40.084;32.908;2023-01-28T08:28:11;27.10;;;13.32;;
72584;SDS011;60618;40.084;32.908;2023-01-28T08:30:38;32.60;;;14.75;;
72584;SDS011;60618;40.084;32.908;2023-01-28T08:33:06;39.17;;;18.80;;
72584;SDS011;60618;40.084;32.908;2023-01-28T08:35:35;43.10;;;19.33;;
72584;SDS011;60618;40.084;32.908;2023-01-28T08:38:03;45.90;;;20.83;;
72584;SDS011;60618;40.084;32.908;2023-01-28T08:40:31;37.20;;;18.00;;
72584;SDS011;60618;40.084;32.908;2023-01-28T08:42:59;36.25;;;17.73;;
72584;SDS011;60618;40.084;32.908;2023-01-28T08:45:26;47.58;;;19.75;;
72584;SDS011;60618;40.084;32.908;2023-01-28T08:47:55;41.03;;;18.70;;
72584;SDS011;60618;40.084;32.908;2023-01-28T08:50:27;36.08;;;17.40;;
72584;SDS011;60618;40.084;32.908;2023-01-28T08:53:10;35.13;;;16.05;;
72584;SDS011;60618;40.084;32.908;2023-01-28T08:55:40;48.47;;;21.75;;
72584;SDS011;60618;40.084;32.908;2023-01-28T08:58:14;45.00;;;23.00;;
72584;SDS011;60618;40.084;32.908;2023-01-28T09:00:43;48.63;;;22.97;;
72584;SDS011;60618;40.084;32.908;2023-01-28T09:03:12;57.13;;;24.65;;
72584;SDS011;60618;40.084;32.908;2023-01-28T09:05:39;58.63;;;27.50;;
72584;SDS011;60618;40.084;32.908;2023-01-28T09:08:07;52.47;;;25.80;;
72584;SDS011;60618;40.084;32.908;2023-01-28T09:10:36;39.50;;;19.15;;
72584;SDS011;60618;40.084;32.908;2023-01-28T09:13:04;25.50;;;12.37;;
72584;SDS011;60618;40.084;32.908;2023-01-28T09:15:33;27.65;;;12.05;;
72584;SDS011;60618;40.084;32.908;2023-01-28T09:18:00;26.15;;;12.98;;
72584;SDS011;60618;40.084;32.908;2023-01-28T09:20:27;23.75;;;11.35;;
72584;SDS011;60618;40.084;32.908;2023-01-28T09:22:54;22.67;;;10.32;;
72584;SDS011;60618;40.084;32.908;2023-01-28T09:25:21;20.00;;;8.50;;
72584;SDS011;60618;40.084;32.908;2023-01-28T09:27:48;18.17;;;8.68;;
72584;SDS011;60618;40.084;32.908;2023-01-28T09:30:15;17.17;;;8.55;;
72584;SDS011;60618;40.084;32.908;2023-01-28T09:32:43;15.73;;;7.68;;
72584;SDS011;60618;40.084;32.908;2023-01-28T09:35:10;15.38;;;8.07;;
72584;SDS011;60618;40.084;32.908;2023-01-28T09:37:37;15.67;;;7.23;;
72584;SDS011;60618;40.084;32.908;2023-01-28T09:40:04;14.98;;;7.40;;
72584;SDS011;60618;40.084;32.908;2023-01-28T09:48:05;15.60;;;7.82;;
72584;SDS011;60618;40.084;32.908;2023-01-28T09:50:41;12.80;;;6.33;;
72584;SDS011;60618;40.084;32.908;2023-01-28T09:53:15;14.68;;;7.05;;
72584;SDS011;60618;40.084;32.908;2023-01-28T09:58:25;9.55;;;3.88;;
72584;SDS011;60618;40.084;32.908;2023-01-28T10:03:33;10.97;;;4.40;;
72584;SDS011;60618;40.084;32.908;2023-01-28T10:19:54;9.25;;;3.00;;
72584;SDS011;60618;40.084;32.908;2023-01-28T10:22:28;7.80;;;2.97;;
72584;SDS011;60618;40.084;32.908;2023-01-28T10:25:23;8.73;;;3.50;;
72584;SDS011;60618;40.084;32.908;2023-01-28T10:27:50;8.48;;;3.72;;
72584;SDS011;60618;40.084;32.908;2023-01-28T10:30:22;8.30;;;3.50;;
72584;SDS011;60618;40.084;32.908;2023-01-28T10:32:53;8.93;;;3.38;;
72584;SDS011;60618;40.084;32.908;2023-01-28T10:35:33;11.27;;;4.40;;
72584;SDS011;60618;40.084;32.908;2023-01-28T10:38:05;11.90;;;4.53;;
72584;SDS011;60618;40.084;32.908;2023-01-28T10:40:34;15.70;;;5.43;;
72584;SDS011;60618;40.084;32.908;2023-01-28T10:43:01;12.27;;;4.40;;
72584;SDS011;60618;40.084;32.908;2023-01-28T10:45:30;12.35;;;4.60;;
72584;SDS011;60618;40.084;32.908;2023-01-28T10:48:12;13.18;;;5.00;;
72584;SDS011;60618;40.084;32.908;2023-01-28T10:50:48;12.43;;;5.75;;
72584;SDS011;60618;40.084;32.908;2023-01-28T10:53:31;11.40;;;4.95;;
72584;SDS011;60618;40.084;32.908;2023-01-28T10:55:59;14.20;;;5.17;;
72584;SDS011;60618;40.084;32.908;2023-01-28T10:58:28;10.60;;;4.70;;
72584;SDS011;60618;40.084;32.908;2023-01-28T11:00:59;11.95;;;4.70;;
72584;SDS011;60618;40.084;32.908;2023-01-28T11:03:28;11.68;;;4.65;;
72584;SDS011;60618;40.084;32.908;2023-01-28T11:05:56;9.85;;;4.10;;
72584;SDS011;60618;40.084;32.908;2023-01-28T11:08:25;11.33;;;3.70;;
72584;SDS011;60618;40.084;32.908;2023-01-28T11:10:54;7.07;;;2.30;;
72584;SDS011;60618;40.084;32.908;2023-01-28T11:18:54;6.68;;;2.30;;
72584;SDS011;60618;40.084;32.908;2023-01-28T11:21:28;6.67;;;2.00;;
72584;SDS011;60618;40.084;32.908;2023-01-28T11:24:01;7.38;;;2.55;;
72584;SDS011;60618;40.084;32.908;2023-01-28T11:26:35;4.47;;;1.80;;
72584;SDS011;60618;40.084;32.908;2023-01-28T11:29:05;6.97;;;2.00;;
72584;SDS011;60618;40.084;32.908;2023-01-28T11:31:42;9.30;;;2.40;;
72584;SDS011;60618;40.084;32.908;2023-01-28T11:34:14;7.10;;;1.90;;
72584;SDS011;60618;40.084;32.908;2023-01-28T11:36:53;6.10;;;2.30;;
72584;SDS011;60618;40.084;32.908;2023-01-28T11:39:27;5.93;;;2.10;;
72584;SDS011;60618;40.084;32.908;2023-01-28T11:42:11;6.78;;;2.63;;
72584;SDS011;60618;40.084;32.908;2023-01-28T11:44:44;8.63;;;3.00;;
72584;SDS011;60618;40.084;32.908;2023-01-28T11:47:19;6.80;;;2.73;;
72584;SDS011;60618;40.084;32.908;2023-01-28T11:52:35;7.47;;;3.08;;
72584;SDS011;60618;40.084;32.908;2023-01-28T11:55:40;9.55;;;3.00;;
72584;SDS011;60618;40.084;32.908;2023-01-28T11:58:35;6.82;;;2.65;;
72584;SDS011;60618;40.084;32.908;2023-01-28T12:12:40;8.20;;;2.20;;
72584;SDS011;60618;40.084;32.908;2023-01-28T12:15:32;6.47;;;2.00;;
72584;SDS011;60618;40.084;32.908;2023-01-28T12:29:40;7.57;;;2.50;;
72584;SDS011;60618;40.084;32.908;2023-01-28T12:32:18;9.18;;;2.00;;
72584;SDS011;60618;40.084;32.908;2023-01-28T12:48:50;7.85;;;2.38;;
72584;SDS011;60618;40.084;32.908;2023-01-28T12:51:23;8.75;;;2.50;;
72584;SDS011;60618;40.084;32.908;2023-01-28T12:56:30;6.60;;;2.00;;
72584;SDS011;60618;40.084;32.908;2023-01-28T12:59:24;7.63;;;3.30;;
72584;SDS011;60618;40.084;32.908;2023-01-28T13:02:00;7.15;;;2.10;;
72584;SDS011;60618;40.084;32.908;2023-01-28T13:07:27;7.45;;;2.45;;
72584;SDS011;60618;40.084;32.908;2023-01-28T13:10:45;12.93;;;4.50;;
72584;SDS011;60618;40.084;32.908;2023-01-28T13:13:12;6.78;;;3.10;;
72584;SDS011;60618;40.084;32.908;2023-01-28T13:16:01;6.35;;;2.28;;
72584;SDS011;60618;40.084;32.908;2023-01-28T13:18:31;8.02;;;2.50;;
72584;SDS011;60618;40.084;32.908;2023-01-28T13:23:43;7.87;;;2.33;;
72584;SDS011;60618;40.084;32.908;2023-01-28T13:28:47;7.20;;;1.98;;
72584;SDS011;60618;40.084;32.908;2023-01-28T13:31:17;5.72;;;2.00;;
72584;SDS011;60618;40.084;32.908;2023-01-28T13:39:21;7.35;;;1.95;;
72584;SDS011;60618;40.084;32.908;2023-01-28T13:44:40;8.68;;;2.38;;
72584;SDS011;60618;40.084;32.908;2023-01-28T13:52:15;6.78;;;2.80;;
72584;SDS011;60618;40.084;32.908;2023-01-28T14:09:32;9.13;;;3.15;;
72584;SDS011;60618;40.084;32.908;2023-01-28T14:15:23;8.80;;;2.72;;
72584;SDS011;60618;40.084;32.908;2023-01-28T14:18:25;8.63;;;2.60;;
72584;SDS011;60618;40.084;32.908;2023-01-28T14:20:55;11.13;;;3.20;;
72584;SDS011;60618;40.084;32.908;2023-01-28T14:23:25;15.30;;;4.10;;
72584;SDS011;60618;40.084;32.908;2023-01-28T14:28:33;10.07;;;3.92;;
72584;SDS011;60618;40.084;32.908;2023-01-28T14:31:10;12.57;;;3.63;;
72584;SDS011;60618;40.084;32.908;2023-01-28T14:33:42;9.07;;;3.40;;
72584;SDS011;60618;40.084;32.908;2023-01-28T14:36:10;9.63;;;3.20;;
72584;SDS011;60618;40.084;32.908;2023-01-28T14:38:40;10.15;;;3.47;;
72584;SDS011;60618;40.084;32.908;2023-01-28T14:41:10;12.48;;;3.47;;
72584;SDS011;60618;40.084;32.908;2023-01-28T14:43:53;11.07;;;3.20;;
72584;SDS011;60618;40.084;32.908;2023-01-28T14:52:04;13.60;;;4.10;;
72584;SDS011;60618;40.084;32.908;2023-01-28T14:57:49;12.33;;;4.07;;
72584;SDS011;60618;40.084;32.908;2023-01-28T15:00:22;13.45;;;4.18;;
72584;SDS011;60618;40.084;32.908;2023-01-28T15:02:50;14.43;;;4.60;;
72584;SDS011;60618;40.084;32.908;2023-01-28T15:05:19;13.27;;;4.25;;
72584;SDS011;60618;40.084;32.908;2023-01-28T15:07:51;10.00;;;4.05;;
72584;SDS011;60618;40.084;32.908;2023-01-28T15:12:53;18.95;;;5.28;;
72584;SDS011;60618;40.084;32.908;2023-01-28T15:15:35;12.57;;;5.50;;
72584;SDS011;60618;40.084;32.908;2023-01-28T15:20:50;14.65;;;5.85;;
72584;SDS011;60618;40.084;32.908;2023-01-28T15:23:21;20.80;;;8.70;;
72584;SDS011;60618;40.084;32.908;2023-01-28T15:25:57;25.98;;;7.50;;
72584;SDS011;60618;40.084;32.908;2023-01-28T15:28:29;23.35;;;6.80;;
72584;SDS011;60618;40.084;32.908;2023-01-28T15:31:00;19.55;;;6.35;;
72584;SDS011;60618;40.084;32.908;2023-01-28T15:33:27;19.55;;;6.60;;
72584;SDS011;60618;40.084;32.908;2023-01-28T15:36:02;19.77;;;5.80;;
72584;SDS011;60618;40.084;32.908;2023-01-28T15:38:31;14.63;;;6.25;;
72584;SDS011;60618;40.084;32.908;2023-01-28T15:40:59;20.20;;;5.70;;
72584;SDS011;60618;40.084;32.908;2023-01-28T15:43:31;17.15;;;7.65;;
72584;SDS011;60618;40.084;32.908;2023-01-28T15:46:01;19.15;;;7.30;;
72584;SDS011;60618;40.084;32.908;2023-01-28T15:48:30;22.07;;;8.50;;
72584;SDS011;60618;40.084;32.908;2023-01-28T15:51:03;18.35;;;7.45;;
72584;SDS011;60618;40.084;32.908;2023-01-28T15:53:34;18.95;;;8.05;;
72584;SDS011;60618;40.084;32.908;2023-01-28T15:56:11;13.85;;;6.57;;
72584;SDS011;60618;40.084;32.908;2023-01-28T15:58:40;17.75;;;7.00;;
72584;SDS011;60618;40.084;32.908;2023-01-28T16:01:11;15.17;;;6.20;;
72584;SDS011;60618;40.084;32.908;2023-01-28T16:03:41;17.98;;;5.80;;
72584;SDS011;60618;40.084;32.908;2023-01-28T16:08:41;13.80;;;4.93;;
72584;SDS011;60618;40.084;32.908;2023-01-28T16:11:21;16.48;;;5.88;;
72584;SDS011;60618;40.084;32.908;2023-01-28T16:13:51;15.10;;;5.67;;
72584;SDS011;60618;40.084;32.908;2023-01-28T16:16:34;16.88;;;6.57;;
72584;SDS011;60618;40.084;32.908;2023-01-28T16:19:04;16.83;;;5.72;;
72584;SDS011;60618;40.084;32.908;2023-01-28T16:21:33;16.60;;;6.30;;
72584;SDS011;60618;40.084;32.908;2023-01-28T16:24:17;20.02;;;8.48;;
72584;SDS011;60618;40.084;32.908;2023-01-28T16:26:59;9.50;;;3.57;;
72584;SDS011;60618;40.084;32.908;2023-01-28T16:29:45;7.60;;;2.63;;
72584;SDS011;60618;40.084;32.908;2023-01-28T16:37:44;7.32;;;2.50;;
72584;SDS011;60618;40.084;32.908;2023-01-28T16:40:13;5.33;;;2.20;;
72584;SDS011;60618;40.084;32.908;2023-01-28T16:42:42;7.18;;;2.33;;
72584;SDS011;60618;40.084;32.908;2023-01-28T16:45:19;5.00;;;1.80;;
72584;SDS011;60618;40.084;32.908;2023-01-28T16:47:49;6.90;;;2.65;;
72584;SDS011;60618;40.084;32.908;2023-01-28T16:50:18;6.80;;;2.00;;
72584;SDS011;60618;40.084;32.908;2023-01-28T16:52:46;7.67;;;2.77;;
72584;SDS011;60618;40.084;32.908;2023-01-28T16:55:16;7.28;;;2.28;;
72584;SDS011;60618;40.084;32.908;2023-01-28T16:57:45;5.78;;;2.10;;
72584;SDS011;60618;40.084;32.908;2023-01-28T17:00:18;5.50;;;2.05;;
72584;SDS011;60618;40.084;32.908;2023-01-28T17:02:49;6.25;;;2.00;;
72584;SDS011;60618;40.084;32.908;2023-01-28T17:05:17;6.83;;;2.53;;
72584;SDS011;60618;40.084;32.908;2023-01-28T17:07:48;6.93;;;2.13;;
72584;SDS011;60618;40.084;32.908;2023-01-28T17:10:16;6.68;;;2.15;;
72584;SDS011;60618;40.084;32.908;2023-01-28T17:12:45;7.68;;;2.40;;
72584;SDS011;60618;40.084;32.908;2023-01-28T17:15:13;9.48;;;2.67;;
72584;SDS011;60618;40.084;32.908;2023-01-28T17:17:41;8.40;;;3.30;;
72584;SDS011;60618;40.084;32.908;2023-01-28T17:20:08;7.35;;;3.40;;
72584;SDS011;60618;40.084;32.908;2023-01-28T17:22:36;6.55;;;3.00;;
72584;SDS011;60618;40.084;32.908;2023-01-28T17:25:03;7.28;;;2.65;;
72584;SDS011;60618;40.084;32.908;2023-01-28T17:27:30;6.75;;;2.75;;
72584;SDS011;60618;40.084;32.908;2023-01-28T17:29:57;6.03;;;2.57;;